sensor_id;sensor_type;location;lat;lon;timestamp;P1;durP1;ratioP1;P2;durP2;ratioP2
9473;SDS011;8865;47.636;7.692;2023-02-28T00:00:32;3.60;;;3.13;;
9473;SDS011;8865;47.636;7.692;2023-02-28T00:02:59;5.17;;;3.60;;
9473;SDS011;8865;47.636;7.692;2023-02-28T00:05:25;4.90;;;3.73;;
9473;SDS011;8865;47.636;7.692;2023-02-28T00:07:52;4.47;;;3.47;;
9473;SDS011;8865;47.636;7.692;2023-02-28T00:10:20;4.57;;;3.57;;
9473;SDS011;8865;47.636;7.692;2023-02-28T00:12:50;3.63;;;3.33;;
9473;SDS011;8865;47.636;7.692;2023-02-28T00:15:16;4.67;;;3.43;;
9473;SDS011;8865;47.636;7.692;2023-02-28T00:17:43;4.53;;;3.47;;
9473;SDS011;8865;47.636;7.692;2023-02-28T00:20:09;5.30;;;3.70;;
9473;SDS011;8865;47.636;7.692;2023-02-28T00:22:37;3.87;;;3.50;;
9473;SDS011;8865;47.636;7.692;2023-02-28T00:25:05;4.57;;;3.70;;
9473;SDS011;8865;47.636;7.692;2023-02-28T00:27:35;4.17;;;3.70;;
9473;SDS011;8865;47.636;7.692;2023-02-28T00:30:02;4.50;;;3.47;;
9473;SDS011;8865;47.636;7.692;2023-02-28T00:32:29;4.83;;;3.67;;
9473;SDS011;8865;47.636;7.692;2023-02-28T00:34:55;4.47;;;3.70;;
9473;SDS011;8865;47.636;7.692;2023-02-28T00:37:21;4.20;;;3.77;;
9473;SDS011;8865;47.636;7.692;2023-02-28T00:39:47;5.97;;;3.67;;
9473;SDS011;8865;47.636;7.692;2023-02-28T00:42:13;4.47;;;3.73;;
9473;SDS011;8865;47.636;7.692;2023-02-28T00:44:39;4.47;;;4.07;;
9473;SDS011;8865;47.636;7.692;2023-02-28T00:47:05;4.40;;;3.83;;
9473;SDS011;8865;47.636;7.692;2023-02-28T00:49:31;4.20;;;3.80;;
9473;SDS011;8865;47.636;7.692;2023-02-28T00:51:57;4.70;;;3.77;;
9473;SDS011;8865;47.636;7.692;2023-02-28T00:54:23;4.07;;;3.70;;
9473;SDS011;8865;47.636;7.692;2023-02-28T00:56:49;5.10;;;4.13;;
9473;SDS011;8865;47.636;7.692;2023-02-28T00:59:16;4.13;;;3.73;;
9473;SDS011;8865;47.636;7.692;2023-02-28T01:01:43;5.20;;;3.90;;
9473;SDS011;8865;47.636;7.692;2023-02-28T01:04:10;4.07;;;3.67;;
9473;SDS011;8865;47.636;7.692;2023-02-28T01:06:36;4.23;;;3.80;;
9473;SDS011;8865;47.636;7.692;2023-02-28T01:09:03;4.80;;;3.90;;
9473;SDS011;8865;47.636;7.692;2023-02-28T01:11:29;4.13;;;3.70;;
9473;SDS011;8865;47.636;7.692;2023-02-28T01:13:56;4.80;;;4.00;;
9473;SDS011;8865;47.636;7.692;2023-02-28T01:16:22;4.43;;;3.93;;
9473;SDS011;8865;47.636;7.692;2023-02-28T01:18:48;4.90;;;4.40;;
9473;SDS011;8865;47.636;7.692;2023-02-28T01:21:15;4.70;;;4.00;;
9473;SDS011;8865;47.636;7.692;2023-02-28T01:23:43;5.63;;;3.80;;
9473;SDS011;8865;47.636;7.692;2023-02-28T01:26:10;4.73;;;4.23;;
9473;SDS011;8865;47.636;7.692;2023-02-28T01:28:38;4.20;;;3.80;;
9473;SDS011;8865;47.636;7.692;2023-02-28T01:31:05;4.87;;;4.27;;
9473;SDS011;8865;47.636;7.692;2023-02-28T01:33:31;4.87;;;3.70;;
9473;SDS011;8865;47.636;7.692;2023-02-28T01:36:02;4.40;;;4.00;;
9473;SDS011;8865;47.636;7.692;2023-02-28T01:38:30;3.77;;;3.47;;
9473;SDS011;8865;47.636;7.692;2023-02-28T01:40:57;5.03;;;3.90;;
9473;SDS011;8865;47.636;7.692;2023-02-28T01:43:24;4.47;;;4.07;;
9473;SDS011;8865;47.636;7.692;2023-02-28T01:45:51;5.90;;;4.07;;
9473;SDS011;8865;47.636;7.692;2023-02-28T01:48:19;5.67;;;4.10;;
9473;SDS011;8865;47.636;7.692;2023-02-28T01:50:49;4.83;;;4.30;;
9473;SDS011;8865;47.636;7.692;2023-02-28T01:53:17;4.77;;;4.13;;
9473;SDS011;8865;47.636;7.692;2023-02-28T01:55:45;5.13;;;3.93;;
9473;SDS011;8865;47.636;7.692;2023-02-28T01:58:14;4.00;;;3.70;;
9473;SDS011;8865;47.636;7.692;2023-02-28T02:00:41;4.07;;;3.67;;
9473;SDS011;8865;47.636;7.692;2023-02-28T02:03:09;4.50;;;4.10;;
9473;SDS011;8865;47.636;7.692;2023-02-28T02:05:38;4.17;;;3.77;;
9473;SDS011;8865;47.636;7.692;2023-02-28T02:08:08;4.83;;;4.07;;
9473;SDS011;8865;47.636;7.692;2023-02-28T02:10:45;4.63;;;4.10;;
9473;SDS011;8865;47.636;7.692;2023-02-28T02:22:34;4.43;;;3.90;;
9473;SDS011;8865;47.636;7.692;2023-02-28T02:25:32;4.50;;;4.10;;
9473;SDS011;8865;47.636;7.692;2023-02-28T02:36:05;4.60;;;4.10;;
9473;SDS011;8865;47.636;7.692;2023-02-28T02:38:44;4.20;;;3.80;;
9473;SDS011;8865;47.636;7.692;2023-02-28T02:41:25;4.40;;;3.60;;
9473;SDS011;8865;47.636;7.692;2023-02-28T02:44:18;4.33;;;3.93;;
9473;SDS011;8865;47.636;7.692;2023-02-28T02:46:51;5.57;;;3.83;;
9473;SDS011;8865;47.636;7.692;2023-02-28T02:49:34;4.77;;;3.80;;
9473;SDS011;8865;47.636;7.692;2023-02-28T02:52:03;4.07;;;3.73;;
9473;SDS011;8865;47.636;7.692;2023-02-28T02:54:34;4.43;;;4.03;;
9473;SDS011;8865;47.636;7.692;2023-02-28T02:57:04;5.43;;;3.80;;
9473;SDS011;8865;47.636;7.692;2023-02-28T02:59:35;4.23;;;3.80;;
9473;SDS011;8865;47.636;7.692;2023-02-28T03:02:04;5.33;;;3.90;;
9473;SDS011;8865;47.636;7.692;2023-02-28T03:04:36;3.90;;;3.53;;
9473;SDS011;8865;47.636;7.692;2023-02-28T03:07:08;4.07;;;3.70;;
9473;SDS011;8865;47.636;7.692;2023-02-28T03:09:34;4.43;;;4.03;;
9473;SDS011;8865;47.636;7.692;2023-02-28T03:12:01;4.93;;;3.87;;
9473;SDS011;8865;47.636;7.692;2023-02-28T03:14:32;4.20;;;3.77;;
9473;SDS011;8865;47.636;7.692;2023-02-28T03:19:55;5.07;;;3.90;;
9473;SDS011;8865;47.636;7.692;2023-02-28T03:31:21;4.10;;;3.70;;
9473;SDS011;8865;47.636;7.692;2023-02-28T03:34:10;4.30;;;3.77;;
9473;SDS011;8865;47.636;7.692;2023-02-28T03:36:47;4.20;;;3.80;;
9473;SDS011;8865;47.636;7.692;2023-02-28T03:39:16;4.27;;;3.87;;
9473;SDS011;8865;47.636;7.692;2023-02-28T03:41:57;4.87;;;4.27;;
9473;SDS011;8865;47.636;7.692;2023-02-28T03:44:32;5.10;;;4.60;;
9473;SDS011;8865;47.636;7.692;2023-02-28T03:47:04;5.00;;;4.37;;
9473;SDS011;8865;47.636;7.692;2023-02-28T03:49:46;4.87;;;4.43;;
9473;SDS011;8865;47.636;7.692;2023-02-28T03:52:19;6.77;;;5.10;;
9473;SDS011;8865;47.636;7.692;2023-02-28T03:54:52;5.20;;;4.70;;
9473;SDS011;8865;47.636;7.692;2023-02-28T03:57:41;5.10;;;4.60;;
9473;SDS011;8865;47.636;7.692;2023-02-28T04:00:21;5.63;;;5.03;;
9473;SDS011;8865;47.636;7.692;2023-02-28T04:02:56;4.77;;;4.37;;
9473;SDS011;8865;47.636;7.692;2023-02-28T04:05:22;5.30;;;4.73;;
9473;SDS011;8865;47.636;7.692;2023-02-28T04:07:49;5.10;;;4.60;;
9473;SDS011;8865;47.636;7.692;2023-02-28T04:10:15;5.37;;;4.87;;
9473;SDS011;8865;47.636;7.692;2023-02-28T04:12:42;5.60;;;4.93;;
9473;SDS011;8865;47.636;7.692;2023-02-28T04:15:08;5.37;;;4.87;;
9473;SDS011;8865;47.636;7.692;2023-02-28T04:17:34;5.23;;;4.73;;
9473;SDS011;8865;47.636;7.692;2023-02-28T04:20:00;5.37;;;4.87;;
9473;SDS011;8865;47.636;7.692;2023-02-28T04:22:26;5.27;;;4.77;;
9473;SDS011;8865;47.636;7.692;2023-02-28T04:24:52;5.17;;;4.67;;
9473;SDS011;8865;47.636;7.692;2023-02-28T04:27:20;6.43;;;5.20;;
9473;SDS011;8865;47.636;7.692;2023-02-28T04:29:47;5.30;;;4.80;;
9473;SDS011;8865;47.636;7.692;2023-02-28T04:32:13;5.97;;;5.37;;
9473;SDS011;8865;47.636;7.692;2023-02-28T04:34:39;10.07;;;6.37;;
9473;SDS011;8865;47.636;7.692;2023-02-28T04:37:05;10.67;;;6.53;;
9473;SDS011;8865;47.636;7.692;2023-02-28T04:39:34;10.20;;;6.50;;
9473;SDS011;8865;47.636;7.692;2023-02-28T04:42:02;7.33;;;5.70;;
9473;SDS011;8865;47.636;7.692;2023-02-28T04:44:28;7.70;;;6.47;;
9473;SDS011;8865;47.636;7.692;2023-02-28T04:46:54;5.93;;;5.33;;
9473;SDS011;8865;47.636;7.692;2023-02-28T04:49:20;6.27;;;5.63;;
9473;SDS011;8865;47.636;7.692;2023-02-28T04:51:47;7.00;;;6.00;;
9473;SDS011;8865;47.636;7.692;2023-02-28T04:54:13;5.80;;;5.30;;
9473;SDS011;8865;47.636;7.692;2023-02-28T04:56:39;5.93;;;5.43;;
9473;SDS011;8865;47.636;7.692;2023-02-28T04:59:05;6.40;;;5.57;;
9473;SDS011;8865;47.636;7.692;2023-02-28T05:01:32;5.90;;;5.30;;
9473;SDS011;8865;47.636;7.692;2023-02-28T05:04:00;6.27;;;5.53;;
9473;SDS011;8865;47.636;7.692;2023-02-28T05:06:28;6.83;;;6.13;;
9473;SDS011;8865;47.636;7.692;2023-02-28T05:08:55;6.47;;;5.77;;
9473;SDS011;8865;47.636;7.692;2023-02-28T05:13:48;7.17;;;6.47;;
9473;SDS011;8865;47.636;7.692;2023-02-28T05:16:14;6.87;;;6.27;;
9473;SDS011;8865;47.636;7.692;2023-02-28T05:18:41;6.50;;;5.90;;
9473;SDS011;8865;47.636;7.692;2023-02-28T05:21:17;6.93;;;6.27;;
9473;SDS011;8865;47.636;7.692;2023-02-28T05:23:49;6.60;;;5.90;;
9473;SDS011;8865;47.636;7.692;2023-02-28T05:26:15;7.70;;;6.90;;
9473;SDS011;8865;47.636;7.692;2023-02-28T05:28:41;7.47;;;6.67;;
9473;SDS011;8865;47.636;7.692;2023-02-28T05:31:09;7.57;;;6.63;;
9473;SDS011;8865;47.636;7.692;2023-02-28T05:33:36;8.73;;;6.97;;
9473;SDS011;8865;47.636;7.692;2023-02-28T05:36:02;6.90;;;6.20;;
9473;SDS011;8865;47.636;7.692;2023-02-28T05:38:29;21.33;;;15.97;;
9473;SDS011;8865;47.636;7.692;2023-02-28T05:40:55;15.83;;;12.53;;
9473;SDS011;8865;47.636;7.692;2023-02-28T05:43:22;7.63;;;6.93;;
9473;SDS011;8865;47.636;7.692;2023-02-28T05:45:48;7.20;;;6.50;;
9473;SDS011;8865;47.636;7.692;2023-02-28T05:48:14;7.07;;;6.37;;
9473;SDS011;8865;47.636;7.692;2023-02-28T05:50:40;7.37;;;6.67;;
9473;SDS011;8865;47.636;7.692;2023-02-28T05:53:08;7.43;;;6.70;;
9473;SDS011;8865;47.636;7.692;2023-02-28T05:55:34;16.77;;;13.10;;
9473;SDS011;8865;47.636;7.692;2023-02-28T05:58:01;22.33;;;16.20;;
9473;SDS011;8865;47.636;7.692;2023-02-28T06:00:27;8.00;;;7.20;;
9473;SDS011;8865;47.636;7.692;2023-02-28T06:02:54;7.60;;;6.80;;
9473;SDS011;8865;47.636;7.692;2023-02-28T06:05:21;8.10;;;6.93;;
9473;SDS011;8865;47.636;7.692;2023-02-28T06:07:48;7.27;;;6.57;;
9473;SDS011;8865;47.636;7.692;2023-02-28T06:10:14;7.57;;;6.50;;
9473;SDS011;8865;47.636;7.692;2023-02-28T06:12:40;7.70;;;7.00;;
9473;SDS011;8865;47.636;7.692;2023-02-28T06:15:12;7.83;;;6.83;;
9473;SDS011;8865;47.636;7.692;2023-02-28T06:17:40;8.30;;;7.23;;
9473;SDS011;8865;47.636;7.692;2023-02-28T06:20:10;8.07;;;7.27;;
9473;SDS011;8865;47.636;7.692;2023-02-28T06:22:38;8.47;;;7.40;;
9473;SDS011;8865;47.636;7.692;2023-02-28T06:25:05;9.07;;;7.80;;
9473;SDS011;8865;47.636;7.692;2023-02-28T06:27:32;8.03;;;7.23;;
9473;SDS011;8865;47.636;7.692;2023-02-28T06:29:59;8.97;;;8.07;;
9473;SDS011;8865;47.636;7.692;2023-02-28T06:32:25;11.27;;;9.13;;
9473;SDS011;8865;47.636;7.692;2023-02-28T06:34:51;32.60;;;22.50;;
9473;SDS011;8865;47.636;7.692;2023-02-28T06:37:18;9.80;;;8.90;;
9473;SDS011;8865;47.636;7.692;2023-02-28T06:39:44;10.57;;;9.27;;
9473;SDS011;8865;47.636;7.692;2023-02-28T06:42:10;10.60;;;9.50;;
9473;SDS011;8865;47.636;7.692;2023-02-28T06:44:36;11.10;;;9.00;;
9473;SDS011;8865;47.636;7.692;2023-02-28T06:47:02;10.80;;;9.03;;
9473;SDS011;8865;47.636;7.692;2023-02-28T06:49:33;10.87;;;9.47;;
9473;SDS011;8865;47.636;7.692;2023-02-28T06:52:00;9.50;;;8.37;;
9473;SDS011;8865;47.636;7.692;2023-02-28T06:54:27;8.60;;;7.70;;
9473;SDS011;8865;47.636;7.692;2023-02-28T06:56:52;8.30;;;7.50;;
9473;SDS011;8865;47.636;7.692;2023-02-28T06:59:20;7.60;;;6.90;;
9473;SDS011;8865;47.636;7.692;2023-02-28T07:01:46;9.53;;;6.93;;
9473;SDS011;8865;47.636;7.692;2023-02-28T07:04:13;7.90;;;7.10;;
9473;SDS011;8865;47.636;7.692;2023-02-28T07:06:39;8.13;;;7.33;;
9473;SDS011;8865;47.636;7.692;2023-02-28T07:09:05;7.93;;;7.13;;
9473;SDS011;8865;47.636;7.692;2023-02-28T07:11:32;9.13;;;7.43;;
9473;SDS011;8865;47.636;7.692;2023-02-28T07:13:58;16.40;;;8.50;;
9473;SDS011;8865;47.636;7.692;2023-02-28T07:16:24;8.73;;;7.90;;
9473;SDS011;8865;47.636;7.692;2023-02-28T07:18:53;9.60;;;8.17;;
9473;SDS011;8865;47.636;7.692;2023-02-28T07:21:20;8.83;;;7.93;;
9473;SDS011;8865;47.636;7.692;2023-02-28T07:23:46;9.63;;;8.43;;
9473;SDS011;8865;47.636;7.692;2023-02-28T07:26:14;9.73;;;8.73;;
9473;SDS011;8865;47.636;7.692;2023-02-28T07:28:42;9.67;;;8.60;;
9473;SDS011;8865;47.636;7.692;2023-02-28T07:31:10;10.30;;;8.67;;
9473;SDS011;8865;47.636;7.692;2023-02-28T07:33:37;9.70;;;8.70;;
9473;SDS011;8865;47.636;7.692;2023-02-28T07:36:06;8.87;;;7.97;;
9473;SDS011;8865;47.636;7.692;2023-02-28T07:38:34;9.50;;;7.83;;
9473;SDS011;8865;47.636;7.692;2023-02-28T07:41:01;10.10;;;8.03;;
9473;SDS011;8865;47.636;7.692;2023-02-28T07:43:30;9.17;;;8.20;;
9473;SDS011;8865;47.636;7.692;2023-02-28T07:46:09;8.30;;;7.50;;
9473;SDS011;8865;47.636;7.692;2023-02-28T07:48:36;8.17;;;7.27;;
9473;SDS011;8865;47.636;7.692;2023-02-28T07:51:03;8.73;;;7.37;;
9473;SDS011;8865;47.636;7.692;2023-02-28T07:53:29;8.30;;;7.50;;
9473;SDS011;8865;47.636;7.692;2023-02-28T07:55:56;9.57;;;7.60;;
9473;SDS011;8865;47.636;7.692;2023-02-28T07:58:23;8.97;;;8.07;;
9473;SDS011;8865;47.636;7.692;2023-02-28T08:00:50;10.87;;;9.00;;
9473;SDS011;8865;47.636;7.692;2023-02-28T08:03:19;10.87;;;8.83;;
9473;SDS011;8865;47.636;7.692;2023-02-28T08:05:47;11.33;;;8.57;;
9473;SDS011;8865;47.636;7.692;2023-02-28T08:08:14;9.00;;;8.10;;
9473;SDS011;8865;47.636;7.692;2023-02-28T08:10:41;9.47;;;8.47;;
9473;SDS011;8865;47.636;7.692;2023-02-28T08:13:07;8.87;;;7.93;;
9473;SDS011;8865;47.636;7.692;2023-02-28T08:15:33;9.30;;;8.30;;
9473;SDS011;8865;47.636;7.692;2023-02-28T08:17:59;8.70;;;7.77;;
9473;SDS011;8865;47.636;7.692;2023-02-28T08:20:25;8.87;;;7.97;;
9473;SDS011;8865;47.636;7.692;2023-02-28T08:22:51;9.90;;;8.70;;
9473;SDS011;8865;47.636;7.692;2023-02-28T08:25:17;9.57;;;8.57;;
9473;SDS011;8865;47.636;7.692;2023-02-28T08:27:43;10.43;;;8.20;;
9473;SDS011;8865;47.636;7.692;2023-02-28T08:30:13;9.23;;;8.33;;
9473;SDS011;8865;47.636;7.692;2023-02-28T08:32:40;9.30;;;8.03;;
9473;SDS011;8865;47.636;7.692;2023-02-28T08:35:06;10.97;;;8.57;;
9473;SDS011;8865;47.636;7.692;2023-02-28T08:37:34;9.40;;;8.37;;
9473;SDS011;8865;47.636;7.692;2023-02-28T08:40:00;9.80;;;8.37;;
9473;SDS011;8865;47.636;7.692;2023-02-28T08:42:26;8.47;;;7.67;;
9473;SDS011;8865;47.636;7.692;2023-02-28T08:44:52;8.53;;;7.73;;
9473;SDS011;8865;47.636;7.692;2023-02-28T08:47:19;8.80;;;7.47;;
9473;SDS011;8865;47.636;7.692;2023-02-28T08:49:45;8.27;;;7.47;;
9473;SDS011;8865;47.636;7.692;2023-02-28T08:52:11;8.63;;;7.73;;
9473;SDS011;8865;47.636;7.692;2023-02-28T08:54:37;8.47;;;7.67;;
9473;SDS011;8865;47.636;7.692;2023-02-28T08:57:03;9.20;;;7.40;;
9473;SDS011;8865;47.636;7.692;2023-02-28T08:59:29;8.53;;;7.57;;
9473;SDS011;8865;47.636;7.692;2023-02-28T09:01:55;8.57;;;7.50;;
9473;SDS011;8865;47.636;7.692;2023-02-28T09:04:21;8.70;;;7.13;;
9473;SDS011;8865;47.636;7.692;2023-02-28T09:06:48;7.63;;;6.80;;
9473;SDS011;8865;47.636;7.692;2023-02-28T09:09:14;8.03;;;7.30;;
9473;SDS011;8865;47.636;7.692;2023-02-28T09:11:41;7.83;;;7.10;;
9473;SDS011;8865;47.636;7.692;2023-02-28T09:14:07;7.77;;;7.07;;
9473;SDS011;8865;47.636;7.692;2023-02-28T09:16:33;8.40;;;7.60;;
9473;SDS011;8865;47.636;7.692;2023-02-28T09:19:00;7.87;;;7.13;;
9473;SDS011;8865;47.636;7.692;2023-02-28T09:21:26;7.80;;;7.00;;
9473;SDS011;8865;47.636;7.692;2023-02-28T09:23:53;7.70;;;6.90;;
9473;SDS011;8865;47.636;7.692;2023-02-28T09:26:23;7.50;;;6.70;;
9473;SDS011;8865;47.636;7.692;2023-02-28T09:28:51;7.97;;;7.00;;
9473;SDS011;8865;47.636;7.692;2023-02-28T09:31:21;7.43;;;6.53;;
9473;SDS011;8865;47.636;7.692;2023-02-28T09:33:50;7.30;;;6.50;;
9473;SDS011;8865;47.636;7.692;2023-02-28T09:36:17;7.10;;;6.40;;
9473;SDS011;8865;47.636;7.692;2023-02-28T09:38:43;6.97;;;6.33;;
9473;SDS011;8865;47.636;7.692;2023-02-28T09:41:17;7.57;;;6.73;;
9473;SDS011;8865;47.636;7.692;2023-02-28T09:43:47;7.07;;;6.37;;
9473;SDS011;8865;47.636;7.692;2023-02-28T09:46:33;7.33;;;6.63;;
9473;SDS011;8865;47.636;7.692;2023-02-28T09:49:12;7.80;;;6.57;;
9473;SDS011;8865;47.636;7.692;2023-02-28T09:54:21;6.83;;;6.13;;
9473;SDS011;8865;47.636;7.692;2023-02-28T09:56:50;7.30;;;6.60;;
9473;SDS011;8865;47.636;7.692;2023-02-28T10:02:00;7.27;;;6.50;;
9473;SDS011;8865;47.636;7.692;2023-02-28T10:04:59;8.37;;;7.27;;
9473;SDS011;8865;47.636;7.692;2023-02-28T10:10:24;8.83;;;6.67;;
9473;SDS011;8865;47.636;7.692;2023-02-28T10:12:55;8.27;;;6.57;;
9473;SDS011;8865;47.636;7.692;2023-02-28T10:15:25;7.57;;;6.77;;
9473;SDS011;8865;47.636;7.692;2023-02-28T10:17:57;7.20;;;6.40;;
9473;SDS011;8865;47.636;7.692;2023-02-28T10:20:26;7.43;;;6.73;;
9473;SDS011;8865;47.636;7.692;2023-02-28T10:25:40;8.23;;;7.07;;
9473;SDS011;8865;47.636;7.692;2023-02-28T10:28:14;6.90;;;6.10;;
9473;SDS011;8865;47.636;7.692;2023-02-28T10:30:47;7.00;;;6.30;;
9473;SDS011;8865;47.636;7.692;2023-02-28T10:35:55;7.50;;;6.07;;
9473;SDS011;8865;47.636;7.692;2023-02-28T10:38:23;7.57;;;6.87;;
9473;SDS011;8865;47.636;7.692;2023-02-28T10:40:51;7.13;;;6.43;;
9473;SDS011;8865;47.636;7.692;2023-02-28T10:43:28;8.47;;;6.67;;
9473;SDS011;8865;47.636;7.692;2023-02-28T10:45:58;7.47;;;6.77;;
9473;SDS011;8865;47.636;7.692;2023-02-28T10:48:41;8.33;;;6.40;;
9473;SDS011;8865;47.636;7.692;2023-02-28T10:51:12;7.33;;;6.50;;
9473;SDS011;8865;47.636;7.692;2023-02-28T11:01:20;7.10;;;6.40;;
9473;SDS011;8865;47.636;7.692;2023-02-28T11:03:48;7.60;;;6.90;;
9473;SDS011;8865;47.636;7.692;2023-02-28T11:06:36;7.87;;;6.70;;
9473;SDS011;8865;47.636;7.692;2023-02-28T11:09:06;7.30;;;6.60;;
9473;SDS011;8865;47.636;7.692;2023-02-28T11:11:59;6.37;;;5.77;;
9473;SDS011;8865;47.636;7.692;2023-02-28T11:14:29;6.80;;;6.20;;
9473;SDS011;8865;47.636;7.692;2023-02-28T11:17:11;7.53;;;6.57;;
9473;SDS011;8865;47.636;7.692;2023-02-28T11:19:44;6.60;;;5.90;;
9473;SDS011;8865;47.636;7.692;2023-02-28T11:22:16;6.47;;;5.80;;
9473;SDS011;8865;47.636;7.692;2023-02-28T11:24:49;7.43;;;6.00;;
9473;SDS011;8865;47.636;7.692;2023-02-28T11:29:57;7.17;;;6.47;;
9473;SDS011;8865;47.636;7.692;2023-02-28T11:32:27;8.97;;;6.70;;
9473;SDS011;8865;47.636;7.692;2023-02-28T11:35:02;7.50;;;6.37;;
9473;SDS011;8865;47.636;7.692;2023-02-28T11:37:42;6.80;;;6.10;;
9473;SDS011;8865;47.636;7.692;2023-02-28T11:40:18;7.20;;;6.13;;
9473;SDS011;8865;47.636;7.692;2023-02-28T11:48:20;8.80;;;6.53;;
9473;SDS011;8865;47.636;7.692;2023-02-28T12:04:51;6.60;;;5.87;;
9473;SDS011;8865;47.636;7.692;2023-02-28T12:07:20;7.30;;;5.87;;
9473;SDS011;8865;47.636;7.692;2023-02-28T12:10:15;6.43;;;5.77;;
9473;SDS011;8865;47.636;7.692;2023-02-28T12:13:21;6.50;;;5.90;;
9473;SDS011;8865;47.636;7.692;2023-02-28T12:19:05;6.27;;;5.67;;
9473;SDS011;8865;47.636;7.692;2023-02-28T12:21:52;6.50;;;5.90;;
9473;SDS011;8865;47.636;7.692;2023-02-28T12:26:57;6.87;;;6.13;;
9473;SDS011;8865;47.636;7.692;2023-02-28T12:29:29;6.43;;;5.83;;
9473;SDS011;8865;47.636;7.692;2023-02-28T12:32:04;7.07;;;6.37;;
9473;SDS011;8865;47.636;7.692;2023-02-28T12:34:36;7.43;;;6.43;;
9473;SDS011;8865;47.636;7.692;2023-02-28T12:37:10;7.07;;;6.47;;
9473;SDS011;8865;47.636;7.692;2023-02-28T12:39:46;6.57;;;5.87;;
9473;SDS011;8865;47.636;7.692;2023-02-28T12:42:26;7.40;;;6.70;;
9473;SDS011;8865;47.636;7.692;2023-02-28T12:44:59;6.70;;;6.10;;
9473;SDS011;8865;47.636;7.692;2023-02-28T12:47:28;7.07;;;6.37;;
9473;SDS011;8865;47.636;7.692;2023-02-28T12:52:25;7.37;;;6.67;;
9473;SDS011;8865;47.636;7.692;2023-02-28T13:00:33;7.53;;;6.83;;
9473;SDS011;8865;47.636;7.692;2023-02-28T13:06:20;12.40;;;8.93;;
9473;SDS011;8865;47.636;7.692;2023-02-28T13:09:04;7.57;;;6.87;;
9473;SDS011;8865;47.636;7.692;2023-02-28T13:14:29;8.17;;;7.33;;
9473;SDS011;8865;47.636;7.692;2023-02-28T13:19:35;7.80;;;7.10;;
9473;SDS011;8865;47.636;7.692;2023-02-28T13:22:03;8.20;;;7.40;;
9473;SDS011;8865;47.636;7.692;2023-02-28T13:29:50;7.90;;;7.10;;
9473;SDS011;8865;47.636;7.692;2023-02-28T13:32:18;7.60;;;6.70;;
9473;SDS011;8865;47.636;7.692;2023-02-28T13:39:54;8.00;;;7.20;;
9473;SDS011;8865;47.636;7.692;2023-02-28T13:47:54;7.73;;;7.03;;
9473;SDS011;8865;47.636;7.692;2023-02-28T13:55:46;8.27;;;7.47;;
9473;SDS011;8865;47.636;7.692;2023-02-28T14:06:32;8.70;;;7.80;;
9473;SDS011;8865;47.636;7.692;2023-02-28T14:11:42;7.90;;;7.13;;
9473;SDS011;8865;47.636;7.692;2023-02-28T14:14:09;9.23;;;8.33;;
9473;SDS011;8865;47.636;7.692;2023-02-28T14:17:04;8.57;;;7.43;;
9473;SDS011;8865;47.636;7.692;2023-02-28T14:19:39;8.73;;;7.93;;
9473;SDS011;8865;47.636;7.692;2023-02-28T14:36:04;10.40;;;8.67;;
9473;SDS011;8865;47.636;7.692;2023-02-28T14:38:36;9.27;;;8.13;;
9473;SDS011;8865;47.636;7.692;2023-02-28T14:41:16;9.40;;;8.50;;
9473;SDS011;8865;47.636;7.692;2023-02-28T14:43:58;9.03;;;8.07;;
9473;SDS011;8865;47.636;7.692;2023-02-28T14:46:39;9.13;;;8.23;;
9473;SDS011;8865;47.636;7.692;2023-02-28T14:49:11;9.90;;;8.90;;
9473;SDS011;8865;47.636;7.692;2023-02-28T14:52:01;9.23;;;8.23;;
9473;SDS011;8865;47.636;7.692;2023-02-28T14:54:31;9.37;;;8.47;;
9473;SDS011;8865;47.636;7.692;2023-02-28T14:56:58;10.23;;;8.93;;
9473;SDS011;8865;47.636;7.692;2023-02-28T14:59:28;10.17;;;9.17;;
9473;SDS011;8865;47.636;7.692;2023-02-28T15:04:52;9.40;;;8.50;;
9473;SDS011;8865;47.636;7.692;2023-02-28T15:07:20;9.90;;;8.70;;
9473;SDS011;8865;47.636;7.692;2023-02-28T15:10:06;9.93;;;8.93;;
9473;SDS011;8865;47.636;7.692;2023-02-28T15:13:04;9.73;;;8.83;;
9473;SDS011;8865;47.636;7.692;2023-02-28T15:15:49;10.30;;;9.23;;
9473;SDS011;8865;47.636;7.692;2023-02-28T15:18:23;9.67;;;8.77;;
9473;SDS011;8865;47.636;7.692;2023-02-28T15:20:57;10.80;;;9.60;;
9473;SDS011;8865;47.636;7.692;2023-02-28T15:23:28;10.60;;;9.50;;
9473;SDS011;8865;47.636;7.692;2023-02-28T15:25:55;10.97;;;9.77;;
9473;SDS011;8865;47.636;7.692;2023-02-28T15:28:22;10.83;;;9.73;;
9473;SDS011;8865;47.636;7.692;2023-02-28T15:30:50;12.60;;;9.87;;
9473;SDS011;8865;47.636;7.692;2023-02-28T15:35:47;10.63;;;9.53;;
9473;SDS011;8865;47.636;7.692;2023-02-28T15:38:15;10.60;;;9.60;;
9473;SDS011;8865;47.636;7.692;2023-02-28T15:40:53;15.50;;;10.67;;
9473;SDS011;8865;47.636;7.692;2023-02-28T15:46:01;10.87;;;9.77;;
9473;SDS011;8865;47.636;7.692;2023-02-28T15:48:36;12.03;;;9.83;;
9473;SDS011;8865;47.636;7.692;2023-02-28T15:51:21;11.00;;;9.90;;
9473;SDS011;8865;47.636;7.692;2023-02-28T15:53:56;11.90;;;10.70;;
9473;SDS011;8865;47.636;7.692;2023-02-28T15:56:26;10.83;;;9.73;;
9473;SDS011;8865;47.636;7.692;2023-02-28T15:58:53;11.77;;;9.93;;
9473;SDS011;8865;47.636;7.692;2023-02-28T16:01:24;11.50;;;10.13;;
9473;SDS011;8865;47.636;7.692;2023-02-28T16:03:54;11.57;;;10.40;;
9473;SDS011;8865;47.636;7.692;2023-02-28T16:06:31;12.27;;;10.00;;
9473;SDS011;8865;47.636;7.692;2023-02-28T16:09:02;12.20;;;10.90;;
9473;SDS011;8865;47.636;7.692;2023-02-28T16:11:30;11.57;;;9.77;;
9473;SDS011;8865;47.636;7.692;2023-02-28T16:13:58;11.57;;;10.33;;
9473;SDS011;8865;47.636;7.692;2023-02-28T16:16:24;10.83;;;9.83;;
9473;SDS011;8865;47.636;7.692;2023-02-28T16:18:52;11.63;;;9.67;;
9473;SDS011;8865;47.636;7.692;2023-02-28T16:21:18;12.63;;;11.33;;
9473;SDS011;8865;47.636;7.692;2023-02-28T16:23:44;12.10;;;10.67;;
9473;SDS011;8865;47.636;7.692;2023-02-28T16:26:21;11.13;;;9.87;;
9473;SDS011;8865;47.636;7.692;2023-02-28T16:28:48;14.90;;;11.57;;
9473;SDS011;8865;47.636;7.692;2023-02-28T16:31:15;15.27;;;13.67;;
9473;SDS011;8865;47.636;7.692;2023-02-28T16:33:42;12.90;;;11.40;;
9473;SDS011;8865;47.636;7.692;2023-02-28T16:36:18;11.73;;;10.07;;
9473;SDS011;8865;47.636;7.692;2023-02-28T16:38:46;11.33;;;10.13;;
9473;SDS011;8865;47.636;7.692;2023-02-28T16:41:14;12.57;;;11.27;;
9473;SDS011;8865;47.636;7.692;2023-02-28T16:43:45;12.87;;;11.37;;
9473;SDS011;8865;47.636;7.692;2023-02-28T16:46:12;12.03;;;10.73;;
9473;SDS011;8865;47.636;7.692;2023-02-28T16:48:39;12.97;;;11.63;;
9473;SDS011;8865;47.636;7.692;2023-02-28T16:51:11;14.00;;;11.43;;
9473;SDS011;8865;47.636;7.692;2023-02-28T16:53:38;11.83;;;10.53;;
9473;SDS011;8865;47.636;7.692;2023-02-28T16:56:04;12.53;;;11.03;;
9473;SDS011;8865;47.636;7.692;2023-02-28T16:58:32;13.77;;;10.77;;
9473;SDS011;8865;47.636;7.692;2023-02-28T17:01:01;12.00;;;10.83;;
9473;SDS011;8865;47.636;7.692;2023-02-28T17:03:28;14.40;;;11.40;;
9473;SDS011;8865;47.636;7.692;2023-02-28T17:05:55;12.83;;;11.43;;
9473;SDS011;8865;47.636;7.692;2023-02-28T17:08:21;12.80;;;11.40;;
9473;SDS011;8865;47.636;7.692;2023-02-28T17:10:47;11.73;;;10.50;;
9473;SDS011;8865;47.636;7.692;2023-02-28T17:13:13;11.70;;;10.50;;
9473;SDS011;8865;47.636;7.692;2023-02-28T17:15:39;11.83;;;10.47;;
9473;SDS011;8865;47.636;7.692;2023-02-28T17:18:06;18.63;;;14.90;;
9473;SDS011;8865;47.636;7.692;2023-02-28T17:20:34;15.43;;;12.93;;
9473;SDS011;8865;47.636;7.692;2023-02-28T17:23:00;12.27;;;10.97;;
9473;SDS011;8865;47.636;7.692;2023-02-28T17:25:27;11.97;;;10.47;;
9473;SDS011;8865;47.636;7.692;2023-02-28T17:27:53;13.73;;;10.83;;
9473;SDS011;8865;47.636;7.692;2023-02-28T17:30:21;13.37;;;11.63;;
9473;SDS011;8865;47.636;7.692;2023-02-28T17:32:49;12.30;;;10.97;;
9473;SDS011;8865;47.636;7.692;2023-02-28T17:35:15;13.50;;;11.83;;
9473;SDS011;8865;47.636;7.692;2023-02-28T17:37:42;14.03;;;12.13;;
9473;SDS011;8865;47.636;7.692;2023-02-28T17:40:15;14.90;;;13.10;;
9473;SDS011;8865;47.636;7.692;2023-02-28T17:42:43;15.10;;;13.47;;
9473;SDS011;8865;47.636;7.692;2023-02-28T17:45:09;15.03;;;12.63;;
9473;SDS011;8865;47.636;7.692;2023-02-28T17:47:36;13.83;;;12.43;;
9473;SDS011;8865;47.636;7.692;2023-02-28T17:50:03;16.50;;;14.47;;
9473;SDS011;8865;47.636;7.692;2023-02-28T17:52:30;35.77;;;27.00;;
9473;SDS011;8865;47.636;7.692;2023-02-28T17:54:56;21.70;;;19.23;;
9473;SDS011;8865;47.636;7.692;2023-02-28T17:57:22;20.23;;;17.73;;